sensor_id;sensor_type;location;lat;lon;timestamp;P1;durP1;ratioP1;P2;durP2;ratioP2
43580;SDS011;29175;51.030;4.606;2023-06-22T00:00:32;17.88;;;6.43;;
43580;SDS011;29175;51.030;4.606;2023-06-22T00:02:58;9.27;;;5.43;;
43580;SDS011;29175;51.030;4.606;2023-06-22T00:05:23;17.08;;;6.22;;
43580;SDS011;29175;51.030;4.606;2023-06-22T00:07:49;11.18;;;5.43;;
43580;SDS011;29175;51.030;4.606;2023-06-22T00:10:14;12.35;;;5.80;;
43580;SDS011;29175;51.030;4.606;2023-06-22T00:12:40;12.43;;;6.25;;
43580;SDS011;29175;51.030;4.606;2023-06-22T00:15:06;12.10;;;5.53;;
43580;SDS011;29175;51.030;4.606;2023-06-22T00:17:32;12.45;;;5.50;;
43580;SDS011;29175;51.030;4.606;2023-06-22T00:19:57;12.90;;;5.70;;
43580;SDS011;29175;51.030;4.606;2023-06-22T00:22:23;15.63;;;5.78;;
43580;SDS011;29175;51.030;4.606;2023-06-22T00:24:54;12.00;;;5.63;;
43580;SDS011;29175;51.030;4.606;2023-06-22T00:27:20;13.82;;;6.55;;
43580;SDS011;29175;51.030;4.606;2023-06-22T00:29:46;17.65;;;7.28;;
43580;SDS011;29175;51.030;4.606;2023-06-22T00:32:12;15.90;;;6.35;;
43580;SDS011;29175;51.030;4.606;2023-06-22T00:34:39;12.50;;;5.63;;
43580;SDS011;29175;51.030;4.606;2023-06-22T00:37:04;17.95;;;6.93;;
43580;SDS011;29175;51.030;4.606;2023-06-22T00:39:30;14.50;;;6.40;;
43580;SDS011;29175;51.030;4.606;2023-06-22T00:41:59;18.92;;;7.47;;
43580;SDS011;29175;51.030;4.606;2023-06-22T00:44:24;15.80;;;7.05;;
43580;SDS011;29175;51.030;4.606;2023-06-22T00:46:50;22.08;;;8.25;;
43580;SDS011;29175;51.030;4.606;2023-06-22T00:49:17;19.38;;;8.57;;
43580;SDS011;29175;51.030;4.606;2023-06-22T00:51:43;16.73;;;6.80;;
43580;SDS011;29175;51.030;4.606;2023-06-22T00:54:11;13.13;;;6.55;;
43580;SDS011;29175;51.030;4.606;2023-06-22T00:56:39;19.20;;;7.88;;
43580;SDS011;29175;51.030;4.606;2023-06-22T00:59:06;17.13;;;7.50;;
43580;SDS011;29175;51.030;4.606;2023-06-22T01:01:31;19.88;;;7.32;;
43580;SDS011;29175;51.030;4.606;2023-06-22T01:03:59;15.10;;;6.93;;
43580;SDS011;29175;51.030;4.606;2023-06-22T01:06:34;14.25;;;6.55;;
43580;SDS011;29175;51.030;4.606;2023-06-22T01:09:14;16.00;;;7.07;;
43580;SDS011;29175;51.030;4.606;2023-06-22T01:11:45;14.10;;;6.22;;
43580;SDS011;29175;51.030;4.606;2023-06-22T01:14:27;13.75;;;6.38;;
43580;SDS011;29175;51.030;4.606;2023-06-22T01:17:17;16.75;;;6.82;;
43580;SDS011;29175;51.030;4.606;2023-06-22T01:19:49;16.80;;;7.53;;
43580;SDS011;29175;51.030;4.606;2023-06-22T01:22:21;17.65;;;7.50;;
43580;SDS011;29175;51.030;4.606;2023-06-22T01:24:54;16.42;;;7.47;;
43580;SDS011;29175;51.030;4.606;2023-06-22T01:30:16;19.95;;;6.63;;
43580;SDS011;29175;51.030;4.606;2023-06-22T01:32:43;14.30;;;6.55;;
43580;SDS011;29175;51.030;4.606;2023-06-22T01:35:10;16.33;;;7.15;;
43580;SDS011;29175;51.030;4.606;2023-06-22T01:37:37;19.50;;;7.30;;
43580;SDS011;29175;51.030;4.606;2023-06-22T01:40:04;18.98;;;7.45;;
43580;SDS011;29175;51.030;4.606;2023-06-22T01:42:32;16.30;;;6.75;;
43580;SDS011;29175;51.030;4.606;2023-06-22T01:44:59;18.35;;;6.93;;
43580;SDS011;29175;51.030;4.606;2023-06-22T01:47:25;14.18;;;7.32;;
43580;SDS011;29175;51.030;4.606;2023-06-22T01:49:52;16.90;;;7.50;;
43580;SDS011;29175;51.030;4.606;2023-06-22T01:52:20;18.00;;;7.22;;
43580;SDS011;29175;51.030;4.606;2023-06-22T01:54:46;18.88;;;8.13;;
43580;SDS011;29175;51.030;4.606;2023-06-22T01:57:13;16.23;;;7.30;;
43580;SDS011;29175;51.030;4.606;2023-06-22T01:59:49;15.98;;;7.63;;
43580;SDS011;29175;51.030;4.606;2023-06-22T02:02:19;19.38;;;7.60;;
43580;SDS011;29175;51.030;4.606;2023-06-22T02:04:53;20.42;;;7.95;;
43580;SDS011;29175;51.030;4.606;2023-06-22T02:07:27;18.33;;;7.80;;
43580;SDS011;29175;51.030;4.606;2023-06-22T02:09:57;20.73;;;7.75;;
43580;SDS011;29175;51.030;4.606;2023-06-22T02:12:25;21.42;;;7.90;;
43580;SDS011;29175;51.030;4.606;2023-06-22T02:14:52;18.80;;;8.00;;
43580;SDS011;29175;51.030;4.606;2023-06-22T02:17:19;18.23;;;7.85;;
43580;SDS011;29175;51.030;4.606;2023-06-22T02:19:45;18.73;;;8.00;;
43580;SDS011;29175;51.030;4.606;2023-06-22T02:22:11;18.65;;;7.95;;
43580;SDS011;29175;51.030;4.606;2023-06-22T02:24:38;20.17;;;7.85;;
43580;SDS011;29175;51.030;4.606;2023-06-22T02:27:04;18.63;;;7.80;;
43580;SDS011;29175;51.030;4.606;2023-06-22T02:29:32;20.38;;;8.40;;
43580;SDS011;29175;51.030;4.606;2023-06-22T02:31:58;18.05;;;8.25;;
43580;SDS011;29175;51.030;4.606;2023-06-22T02:34:24;19.42;;;8.25;;
43580;SDS011;29175;51.030;4.606;2023-06-22T02:36:50;17.70;;;7.43;;
43580;SDS011;29175;51.030;4.606;2023-06-22T02:39:18;20.20;;;8.52;;
43580;SDS011;29175;51.030;4.606;2023-06-22T02:41:48;22.63;;;9.35;;
43580;SDS011;29175;51.030;4.606;2023-06-22T02:44:15;17.27;;;7.90;;
43580;SDS011;29175;51.030;4.606;2023-06-22T02:46:42;23.85;;;7.95;;
43580;SDS011;29175;51.030;4.606;2023-06-22T02:49:07;18.83;;;7.93;;
43580;SDS011;29175;51.030;4.606;2023-06-22T02:51:34;15.48;;;7.43;;
43580;SDS011;29175;51.030;4.606;2023-06-22T02:54:00;17.35;;;7.65;;
43580;SDS011;29175;51.030;4.606;2023-06-22T02:56:28;18.98;;;8.10;;
43580;SDS011;29175;51.030;4.606;2023-06-22T02:58:56;23.83;;;9.02;;
43580;SDS011;29175;51.030;4.606;2023-06-22T03:01:26;18.35;;;8.65;;
43580;SDS011;29175;51.030;4.606;2023-06-22T03:03:58;22.05;;;8.80;;
43580;SDS011;29175;51.030;4.606;2023-06-22T03:06:24;22.50;;;7.82;;
43580;SDS011;29175;51.030;4.606;2023-06-22T03:08:58;24.42;;;9.80;;
43580;SDS011;29175;51.030;4.606;2023-06-22T03:11:25;21.85;;;8.18;;
43580;SDS011;29175;51.030;4.606;2023-06-22T03:13:51;19.17;;;7.70;;
43580;SDS011;29175;51.030;4.606;2023-06-22T03:16:18;18.45;;;8.30;;
43580;SDS011;29175;51.030;4.606;2023-06-22T03:18:44;21.15;;;7.93;;
43580;SDS011;29175;51.030;4.606;2023-06-22T03:21:10;22.27;;;8.75;;
43580;SDS011;29175;51.030;4.606;2023-06-22T03:23:36;21.42;;;8.23;;
43580;SDS011;29175;51.030;4.606;2023-06-22T03:26:01;22.33;;;9.10;;
43580;SDS011;29175;51.030;4.606;2023-06-22T03:28:27;20.10;;;8.35;;
43580;SDS011;29175;51.030;4.606;2023-06-22T03:30:53;24.58;;;8.75;;
43580;SDS011;29175;51.030;4.606;2023-06-22T03:33:19;24.20;;;9.32;;
43580;SDS011;29175;51.030;4.606;2023-06-22T03:35:44;20.50;;;8.27;;
43580;SDS011;29175;51.030;4.606;2023-06-22T03:38:10;20.67;;;8.95;;
43580;SDS011;29175;51.030;4.606;2023-06-22T03:40:36;21.77;;;9.27;;
43580;SDS011;29175;51.030;4.606;2023-06-22T03:43:01;24.65;;;9.43;;
43580;SDS011;29175;51.030;4.606;2023-06-22T03:45:27;20.23;;;8.63;;
43580;SDS011;29175;51.030;4.606;2023-06-22T03:47:52;22.25;;;8.75;;
43580;SDS011;29175;51.030;4.606;2023-06-22T03:50:18;23.65;;;9.13;;
43580;SDS011;29175;51.030;4.606;2023-06-22T03:52:45;19.80;;;8.32;;
43580;SDS011;29175;51.030;4.606;2023-06-22T03:55:11;19.33;;;8.95;;
43580;SDS011;29175;51.030;4.606;2023-06-22T03:57:37;27.17;;;10.38;;
43580;SDS011;29175;51.030;4.606;2023-06-22T04:00:03;26.40;;;10.30;;
43580;SDS011;29175;51.030;4.606;2023-06-22T04:02:32;22.55;;;9.45;;
43580;SDS011;29175;51.030;4.606;2023-06-22T04:04:59;29.05;;;11.23;;
43580;SDS011;29175;51.030;4.606;2023-06-22T04:07:24;24.90;;;9.63;;
43580;SDS011;29175;51.030;4.606;2023-06-22T04:09:50;20.95;;;9.75;;
43580;SDS011;29175;51.030;4.606;2023-06-22T04:12:17;25.73;;;9.85;;
43580;SDS011;29175;51.030;4.606;2023-06-22T04:14:42;25.50;;;10.05;;
43580;SDS011;29175;51.030;4.606;2023-06-22T04:17:08;29.90;;;10.32;;
43580;SDS011;29175;51.030;4.606;2023-06-22T04:19:34;28.65;;;10.98;;
43580;SDS011;29175;51.030;4.606;2023-06-22T04:21:59;23.75;;;10.70;;
43580;SDS011;29175;51.030;4.606;2023-06-22T04:24:25;28.10;;;10.85;;
43580;SDS011;29175;51.030;4.606;2023-06-22T04:26:51;26.90;;;10.27;;
43580;SDS011;29175;51.030;4.606;2023-06-22T04:29:19;27.38;;;11.80;;
43580;SDS011;29175;51.030;4.606;2023-06-22T04:31:45;31.40;;;11.75;;
43580;SDS011;29175;51.030;4.606;2023-06-22T04:34:15;24.45;;;10.40;;
43580;SDS011;29175;51.030;4.606;2023-06-22T04:36:42;26.92;;;11.27;;
43580;SDS011;29175;51.030;4.606;2023-06-22T04:39:08;21.85;;;10.95;;
43580;SDS011;29175;51.030;4.606;2023-06-22T04:41:35;23.10;;;10.07;;
43580;SDS011;29175;51.030;4.606;2023-06-22T04:44:11;28.60;;;11.60;;
43580;SDS011;29175;51.030;4.606;2023-06-22T04:46:50;22.67;;;11.55;;
43580;SDS011;29175;51.030;4.606;2023-06-22T04:49:19;25.27;;;10.43;;
43580;SDS011;29175;51.030;4.606;2023-06-22T04:51:45;29.33;;;11.02;;
43580;SDS011;29175;51.030;4.606;2023-06-22T04:54:11;21.35;;;10.45;;
43580;SDS011;29175;51.030;4.606;2023-06-22T04:56:37;23.25;;;10.02;;
43580;SDS011;29175;51.030;4.606;2023-06-22T04:59:05;26.45;;;11.77;;
43580;SDS011;29175;51.030;4.606;2023-06-22T05:01:32;26.30;;;11.45;;
43580;SDS011;29175;51.030;4.606;2023-06-22T05:03:57;28.13;;;12.73;;
43580;SDS011;29175;51.030;4.606;2023-06-22T05:06:26;29.10;;;11.18;;
43580;SDS011;29175;51.030;4.606;2023-06-22T05:08:53;29.17;;;12.35;;
43580;SDS011;29175;51.030;4.606;2023-06-22T05:11:24;23.65;;;11.07;;
43580;SDS011;29175;51.030;4.606;2023-06-22T05:13:50;25.38;;;11.43;;
43580;SDS011;29175;51.030;4.606;2023-06-22T05:16:16;28.63;;;12.75;;
43580;SDS011;29175;51.030;4.606;2023-06-22T05:18:41;30.20;;;12.27;;
43580;SDS011;29175;51.030;4.606;2023-06-22T05:21:08;26.80;;;11.93;;
43580;SDS011;29175;51.030;4.606;2023-06-22T05:23:34;34.85;;;12.82;;
43580;SDS011;29175;51.030;4.606;2023-06-22T05:25:59;31.60;;;13.25;;
43580;SDS011;29175;51.030;4.606;2023-06-22T05:28:25;27.98;;;12.40;;
43580;SDS011;29175;51.030;4.606;2023-06-22T05:30:51;29.30;;;12.63;;
43580;SDS011;29175;51.030;4.606;2023-06-22T05:33:16;28.45;;;12.25;;
43580;SDS011;29175;51.030;4.606;2023-06-22T05:35:43;27.02;;;12.85;;
43580;SDS011;29175;51.030;4.606;2023-06-22T05:38:08;26.60;;;11.32;;
43580;SDS011;29175;51.030;4.606;2023-06-22T05:40:34;23.60;;;12.60;;
43580;SDS011;29175;51.030;4.606;2023-06-22T05:42:59;29.35;;;13.43;;
43580;SDS011;29175;51.030;4.606;2023-06-22T05:45:26;32.50;;;13.07;;
43580;SDS011;29175;51.030;4.606;2023-06-22T05:47:52;26.67;;;13.27;;
43580;SDS011;29175;51.030;4.606;2023-06-22T05:50:18;27.42;;;13.32;;
43580;SDS011;29175;51.030;4.606;2023-06-22T05:52:44;33.58;;;14.15;;
43580;SDS011;29175;51.030;4.606;2023-06-22T05:55:09;30.52;;;13.77;;
43580;SDS011;29175;51.030;4.606;2023-06-22T05:57:35;30.60;;;13.23;;
43580;SDS011;29175;51.030;4.606;2023-06-22T06:00:00;30.30;;;13.30;;
43580;SDS011;29175;51.030;4.606;2023-06-22T06:02:28;31.30;;;13.35;;
43580;SDS011;29175;51.030;4.606;2023-06-22T06:04:54;28.52;;;13.43;;
43580;SDS011;29175;51.030;4.606;2023-06-22T06:07:20;32.88;;;14.18;;
43580;SDS011;29175;51.030;4.606;2023-06-22T06:09:46;36.63;;;14.30;;
43580;SDS011;29175;51.030;4.606;2023-06-22T06:12:13;33.05;;;15.25;;
43580;SDS011;29175;51.030;4.606;2023-06-22T06:14:38;35.13;;;15.07;;
43580;SDS011;29175;51.030;4.606;2023-06-22T06:17:04;32.83;;;13.60;;
43580;SDS011;29175;51.030;4.606;2023-06-22T06:19:29;38.75;;;15.02;;
43580;SDS011;29175;51.030;4.606;2023-06-22T06:21:55;30.55;;;14.88;;
43580;SDS011;29175;51.030;4.606;2023-06-22T06:24:21;32.03;;;14.80;;
43580;SDS011;29175;51.030;4.606;2023-06-22T06:26:47;34.42;;;15.32;;
43580;SDS011;29175;51.030;4.606;2023-06-22T06:29:13;36.95;;;16.63;;
43580;SDS011;29175;51.030;4.606;2023-06-22T06:31:41;32.33;;;15.38;;
43580;SDS011;29175;51.030;4.606;2023-06-22T06:34:07;33.60;;;15.50;;
43580;SDS011;29175;51.030;4.606;2023-06-22T06:36:32;35.47;;;15.63;;
43580;SDS011;29175;51.030;4.606;2023-06-22T06:38:58;31.23;;;15.20;;
43580;SDS011;29175;51.030;4.606;2023-06-22T06:41:23;36.75;;;16.42;;
43580;SDS011;29175;51.030;4.606;2023-06-22T06:43:49;41.67;;;16.08;;
43580;SDS011;29175;51.030;4.606;2023-06-22T06:46:15;35.33;;;15.13;;
43580;SDS011;29175;51.030;4.606;2023-06-22T06:48:40;32.35;;;14.88;;
43580;SDS011;29175;51.030;4.606;2023-06-22T06:51:06;33.97;;;16.35;;
43580;SDS011;29175;51.030;4.606;2023-06-22T06:53:34;33.67;;;15.02;;
43580;SDS011;29175;51.030;4.606;2023-06-22T06:56:01;33.15;;;16.13;;
43580;SDS011;29175;51.030;4.606;2023-06-22T06:58:27;34.75;;;15.35;;
43580;SDS011;29175;51.030;4.606;2023-06-22T07:00:53;39.60;;;16.55;;
43580;SDS011;29175;51.030;4.606;2023-06-22T07:03:19;31.15;;;15.05;;
43580;SDS011;29175;51.030;4.606;2023-06-22T07:05:44;34.03;;;16.15;;
43580;SDS011;29175;51.030;4.606;2023-06-22T07:08:10;29.42;;;15.07;;
43580;SDS011;29175;51.030;4.606;2023-06-22T07:10:36;34.50;;;15.70;;
43580;SDS011;29175;51.030;4.606;2023-06-22T07:13:01;35.75;;;16.17;;
43580;SDS011;29175;51.030;4.606;2023-06-22T07:15:27;33.38;;;15.52;;
43580;SDS011;29175;51.030;4.606;2023-06-22T07:17:53;36.53;;;15.82;;
43580;SDS011;29175;51.030;4.606;2023-06-22T07:20:19;33.45;;;15.75;;
43580;SDS011;29175;51.030;4.606;2023-06-22T07:22:45;31.13;;;14.93;;
43580;SDS011;29175;51.030;4.606;2023-06-22T07:25:11;38.72;;;16.83;;
43580;SDS011;29175;51.030;4.606;2023-06-22T07:27:39;37.97;;;16.58;;
43580;SDS011;29175;51.030;4.606;2023-06-22T07:30:09;33.22;;;16.23;;
43580;SDS011;29175;51.030;4.606;2023-06-22T07:32:35;36.63;;;15.95;;
43580;SDS011;29175;51.030;4.606;2023-06-22T07:35:01;38.38;;;17.10;;
43580;SDS011;29175;51.030;4.606;2023-06-22T07:37:27;43.08;;;17.27;;
43580;SDS011;29175;51.030;4.606;2023-06-22T07:39:54;32.30;;;16.42;;
43580;SDS011;29175;51.030;4.606;2023-06-22T07:42:24;34.72;;;15.98;;
43580;SDS011;29175;51.030;4.606;2023-06-22T07:44:50;37.65;;;16.55;;
43580;SDS011;29175;51.030;4.606;2023-06-22T07:47:16;34.03;;;16.02;;
43580;SDS011;29175;51.030;4.606;2023-06-22T07:49:44;37.65;;;16.88;;
43580;SDS011;29175;51.030;4.606;2023-06-22T07:52:10;36.40;;;16.90;;
43580;SDS011;29175;51.030;4.606;2023-06-22T07:54:36;31.73;;;15.70;;
43580;SDS011;29175;51.030;4.606;2023-06-22T07:57:01;39.05;;;16.35;;
43580;SDS011;29175;51.030;4.606;2023-06-22T07:59:27;30.75;;;15.18;;
43580;SDS011;29175;51.030;4.606;2023-06-22T08:01:54;36.85;;;15.40;;
43580;SDS011;29175;51.030;4.606;2023-06-22T08:04:20;31.92;;;13.70;;
43580;SDS011;29175;51.030;4.606;2023-06-22T08:06:46;27.30;;;13.23;;
43580;SDS011;29175;51.030;4.606;2023-06-22T08:09:11;28.15;;;12.73;;
43580;SDS011;29175;51.030;4.606;2023-06-22T08:11:37;31.63;;;14.60;;
43580;SDS011;29175;51.030;4.606;2023-06-22T08:14:03;28.80;;;14.30;;
43580;SDS011;29175;51.030;4.606;2023-06-22T08:16:29;28.35;;;13.80;;
43580;SDS011;29175;51.030;4.606;2023-06-22T08:18:55;29.55;;;14.07;;
43580;SDS011;29175;51.030;4.606;2023-06-22T08:21:21;28.55;;;13.52;;
43580;SDS011;29175;51.030;4.606;2023-06-22T08:23:47;26.45;;;13.43;;
43580;SDS011;29175;51.030;4.606;2023-06-22T08:26:14;28.70;;;12.35;;
43580;SDS011;29175;51.030;4.606;2023-06-22T08:28:39;25.50;;;12.23;;
43580;SDS011;29175;51.030;4.606;2023-06-22T08:31:05;25.48;;;11.38;;
43580;SDS011;29175;51.030;4.606;2023-06-22T08:33:31;24.55;;;10.80;;
43580;SDS011;29175;51.030;4.606;2023-06-22T08:35:57;23.83;;;11.93;;
43580;SDS011;29175;51.030;4.606;2023-06-22T08:38:23;20.48;;;11.00;;
43580;SDS011;29175;51.030;4.606;2023-06-22T08:40:49;23.13;;;11.45;;
43580;SDS011;29175;51.030;4.606;2023-06-22T08:43:15;21.70;;;10.88;;
43580;SDS011;29175;51.030;4.606;2023-06-22T08:45:41;20.42;;;10.65;;
43580;SDS011;29175;51.030;4.606;2023-06-22T08:48:06;19.27;;;9.82;;
43580;SDS011;29175;51.030;4.606;2023-06-22T08:50:32;19.83;;;9.57;;
43580;SDS011;29175;51.030;4.606;2023-06-22T08:52:58;20.65;;;10.68;;
43580;SDS011;29175;51.030;4.606;2023-06-22T08:55:23;20.88;;;10.32;;
43580;SDS011;29175;51.030;4.606;2023-06-22T08:57:49;18.77;;;10.18;;
43580;SDS011;29175;51.030;4.606;2023-06-22T09:00:16;22.52;;;10.43;;
43580;SDS011;29175;51.030;4.606;2023-06-22T09:02:43;22.52;;;10.20;;
43580;SDS011;29175;51.030;4.606;2023-06-22T09:05:10;22.80;;;10.13;;
43580;SDS011;29175;51.030;4.606;2023-06-22T09:07:36;20.25;;;9.30;;
43580;SDS011;29175;51.030;4.606;2023-06-22T09:10:02;18.80;;;9.75;;
43580;SDS011;29175;51.030;4.606;2023-06-22T09:12:29;15.60;;;9.15;;
43580;SDS011;29175;51.030;4.606;2023-06-22T09:14:55;21.77;;;9.80;;
43580;SDS011;29175;51.030;4.606;2023-06-22T09:17:21;17.45;;;8.55;;
43580;SDS011;29175;51.030;4.606;2023-06-22T09:19:47;15.65;;;8.70;;
43580;SDS011;29175;51.030;4.606;2023-06-22T09:22:13;19.23;;;8.82;;
43580;SDS011;29175;51.030;4.606;2023-06-22T09:24:39;18.38;;;9.30;;
43580;SDS011;29175;51.030;4.606;2023-06-22T09:27:05;15.02;;;7.78;;
43580;SDS011;29175;51.030;4.606;2023-06-22T09:29:31;18.00;;;8.90;;
43580;SDS011;29175;51.030;4.606;2023-06-22T09:31:58;19.25;;;8.98;;
43580;SDS011;29175;51.030;4.606;2023-06-22T09:34:27;21.83;;;9.32;;
43580;SDS011;29175;51.030;4.606;2023-06-22T09:36:53;20.48;;;10.05;;
43580;SDS011;29175;51.030;4.606;2023-06-22T09:39:20;18.35;;;8.35;;
43580;SDS011;29175;51.030;4.606;2023-06-22T09:41:45;13.98;;;6.95;;
43580;SDS011;29175;51.030;4.606;2023-06-22T09:44:11;17.80;;;7.20;;
43580;SDS011;29175;51.030;4.606;2023-06-22T09:46:37;16.67;;;8.30;;
43580;SDS011;29175;51.030;4.606;2023-06-22T09:49:02;21.40;;;10.27;;
43580;SDS011;29175;51.030;4.606;2023-06-22T09:51:28;20.13;;;9.68;;
43580;SDS011;29175;51.030;4.606;2023-06-22T09:53:54;23.85;;;11.43;;
43580;SDS011;29175;51.030;4.606;2023-06-22T09:56:20;29.48;;;13.48;;
43580;SDS011;29175;51.030;4.606;2023-06-22T09:58:46;33.67;;;14.60;;
43580;SDS011;29175;51.030;4.606;2023-06-22T10:01:12;37.90;;;15.20;;
43580;SDS011;29175;51.030;4.606;2023-06-22T10:03:42;29.65;;;13.65;;
43580;SDS011;29175;51.030;4.606;2023-06-22T10:06:07;34.65;;;15.65;;
43580;SDS011;29175;51.030;4.606;2023-06-22T10:08:34;37.45;;;16.92;;
43580;SDS011;29175;51.030;4.606;2023-06-22T10:11:00;46.33;;;19.73;;
43580;SDS011;29175;51.030;4.606;2023-06-22T10:13:26;44.53;;;21.30;;
43580;SDS011;29175;51.030;4.606;2023-06-22T10:15:51;52.38;;;21.80;;
43580;SDS011;29175;51.030;4.606;2023-06-22T10:18:18;56.25;;;22.65;;
43580;SDS011;29175;51.030;4.606;2023-06-22T10:20:44;56.55;;;24.15;;
43580;SDS011;29175;51.030;4.606;2023-06-22T10:23:16;59.05;;;25.08;;
43580;SDS011;29175;51.030;4.606;2023-06-22T10:25:42;60.00;;;25.60;;
43580;SDS011;29175;51.030;4.606;2023-06-22T10:28:08;68.10;;;28.52;;
43580;SDS011;29175;51.030;4.606;2023-06-22T10:30:33;64.93;;;28.90;;
43580;SDS011;29175;51.030;4.606;2023-06-22T10:32:59;65.50;;;27.20;;
43580;SDS011;29175;51.030;4.606;2023-06-22T10:35:25;66.07;;;27.95;;
43580;SDS011;29175;51.030;4.606;2023-06-22T10:37:50;68.07;;;29.08;;
43580;SDS011;29175;51.030;4.606;2023-06-22T10:40:16;74.63;;;31.23;;
43580;SDS011;29175;51.030;4.606;2023-06-22T10:42:43;68.22;;;30.73;;
43580;SDS011;29175;51.030;4.606;2023-06-22T10:45:09;72.00;;;30.58;;
43580;SDS011;29175;51.030;4.606;2023-06-22T10:47:36;72.25;;;32.40;;
43580;SDS011;29175;51.030;4.606;2023-06-22T10:50:02;67.78;;;31.30;;
43580;SDS011;29175;51.030;4.606;2023-06-22T10:52:28;78.32;;;34.38;;
43580;SDS011;29175;51.030;4.606;2023-06-22T10:54:54;77.97;;;33.60;;
43580;SDS011;29175;51.030;4.606;2023-06-22T10:57:21;81.32;;;35.22;;
43580;SDS011;29175;51.030;4.606;2023-06-22T10:59:47;81.53;;;34.25;;
43580;SDS011;29175;51.030;4.606;2023-06-22T11:02:12;88.50;;;36.78;;
43580;SDS011;29175;51.030;4.606;2023-06-22T11:04:38;89.07;;;38.05;;
43580;SDS011;29175;51.030;4.606;2023-06-22T11:07:03;88.95;;;36.40;;
43580;SDS011;29175;51.030;4.606;2023-06-22T11:09:29;85.50;;;37.42;;
43580;SDS011;29175;51.030;4.606;2023-06-22T11:11:56;83.00;;;35.30;;
43580;SDS011;29175;51.030;4.606;2023-06-22T11:14:23;75.97;;;33.72;;
43580;SDS011;29175;51.030;4.606;2023-06-22T11:16:50;79.80;;;33.28;;
43580;SDS011;29175;51.030;4.606;2023-06-22T11:19:16;77.35;;;33.55;;
43580;SDS011;29175;51.030;4.606;2023-06-22T11:21:41;74.10;;;32.25;;
43580;SDS011;29175;51.030;4.606;2023-06-22T11:24:07;82.40;;;32.88;;
43580;SDS011;29175;51.030;4.606;2023-06-22T11:26:33;74.40;;;31.52;;
43580;SDS011;29175;51.030;4.606;2023-06-22T11:28:59;60.25;;;27.33;;
43580;SDS011;29175;51.030;4.606;2023-06-22T11:31:25;63.88;;;27.25;;
43580;SDS011;29175;51.030;4.606;2023-06-22T11:33:50;64.90;;;26.65;;
43580;SDS011;29175;51.030;4.606;2023-06-22T11:36:16;63.83;;;25.30;;
43580;SDS011;29175;51.030;4.606;2023-06-22T11:38:42;65.25;;;27.15;;
43580;SDS011;29175;51.030;4.606;2023-06-22T11:41:09;60.92;;;26.75;;
43580;SDS011;29175;51.030;4.606;2023-06-22T11:43:35;60.35;;;24.80;;
43580;SDS011;29175;51.030;4.606;2023-06-22T11:46:05;65.68;;;27.67;;
43580;SDS011;29175;51.030;4.606;2023-06-22T11:48:31;65.10;;;27.15;;
43580;SDS011;29175;51.030;4.606;2023-06-22T11:50:57;59.10;;;26.08;;
43580;SDS011;29175;51.030;4.606;2023-06-22T11:53:24;63.38;;;28.13;;
43580;SDS011;29175;51.030;4.606;2023-06-22T11:55:51;62.08;;;28.30;;
43580;SDS011;29175;51.030;4.606;2023-06-22T11:58:17;60.28;;;27.63;;
43580;SDS011;29175;51.030;4.606;2023-06-22T12:00:43;61.90;;;27.98;;
43580;SDS011;29175;51.030;4.606;2023-06-22T12:03:10;66.18;;;29.00;;
43580;SDS011;29175;51.030;4.606;2023-06-22T12:05:36;67.57;;;28.67;;
43580;SDS011;29175;51.030;4.606;2023-06-22T12:08:03;63.92;;;28.15;;
43580;SDS011;29175;51.030;4.606;2023-06-22T12:10:29;63.00;;;28.13;;
43580;SDS011;29175;51.030;4.606;2023-06-22T12:12:55;67.63;;;31.13;;
43580;SDS011;29175;51.030;4.606;2023-06-22T12:15:22;65.00;;;29.60;;
43580;SDS011;29175;51.030;4.606;2023-06-22T12:17:48;66.75;;;29.98;;
43580;SDS011;29175;51.030;4.606;2023-06-22T12:20:14;71.25;;;30.30;;
43580;SDS011;29175;51.030;4.606;2023-06-22T12:22:40;70.40;;;31.42;;
43580;SDS011;29175;51.030;4.606;2023-06-22T12:25:07;68.00;;;31.42;;
43580;SDS011;29175;51.030;4.606;2023-06-22T12:27:33;71.10;;;31.00;;
43580;SDS011;29175;51.030;4.606;2023-06-22T12:30:00;76.90;;;31.30;;
43580;SDS011;29175;51.030;4.606;2023-06-22T12:32:25;69.68;;;31.83;;
43580;SDS011;29175;51.030;4.606;2023-06-22T12:34:51;73.93;;;32.45;;
43580;SDS011;29175;51.030;4.606;2023-06-22T12:37:17;73.32;;;32.85;;
43580;SDS011;29175;51.030;4.606;2023-06-22T12:39:42;76.78;;;33.17;;
43580;SDS011;29175;51.030;4.606;2023-06-22T12:42:08;79.03;;;33.58;;
43580;SDS011;29175;51.030;4.606;2023-06-22T12:44:37;68.15;;;32.22;;
43580;SDS011;29175;51.030;4.606;2023-06-22T12:47:03;83.72;;;34.50;;
43580;SDS011;29175;51.030;4.606;2023-06-22T12:49:29;79.18;;;35.00;;
43580;SDS011;29175;51.030;4.606;2023-06-22T12:51:54;80.55;;;34.65;;
43580;SDS011;29175;51.030;4.606;2023-06-22T12:54:20;80.75;;;35.80;;
43580;SDS011;29175;51.030;4.606;2023-06-22T12:56:46;85.13;;;36.97;;
43580;SDS011;29175;51.030;4.606;2023-06-22T12:59:12;83.43;;;35.72;;
43580;SDS011;29175;51.030;4.606;2023-06-22T13:01:37;78.78;;;35.60;;
43580;SDS011;29175;51.030;4.606;2023-06-22T13:04:03;92.30;;;36.10;;
43580;SDS011;29175;51.030;4.606;2023-06-22T13:06:30;81.72;;;35.03;;
43580;SDS011;29175;51.030;4.606;2023-06-22T13:08:55;82.20;;;34.92;;
43580;SDS011;29175;51.030;4.606;2023-06-22T13:11:21;81.30;;;36.70;;
43580;SDS011;29175;51.030;4.606;2023-06-22T13:13:47;85.78;;;35.97;;
43580;SDS011;29175;51.030;4.606;2023-06-22T13:16:13;79.80;;;36.40;;
43580;SDS011;29175;51.030;4.606;2023-06-22T13:18:39;80.65;;;35.05;;
43580;SDS011;29175;51.030;4.606;2023-06-22T13:21:05;79.53;;;36.00;;
43580;SDS011;29175;51.030;4.606;2023-06-22T13:23:30;80.38;;;35.40;;
43580;SDS011;29175;51.030;4.606;2023-06-22T13:25:57;86.50;;;36.85;;
43580;SDS011;29175;51.030;4.606;2023-06-22T13:28:23;85.32;;;37.42;;
43580;SDS011;29175;51.030;4.606;2023-06-22T13:30:49;83.97;;;37.40;;
43580;SDS011;29175;51.030;4.606;2023-06-22T13:33:14;86.28;;;37.38;;
43580;SDS011;29175;51.030;4.606;2023-06-22T13:35:40;90.90;;;38.35;;
43580;SDS011;29175;51.030;4.606;2023-06-22T13:38:09;86.70;;;39.28;;
43580;SDS011;29175;51.030;4.606;2023-06-22T13:40:35;90.70;;;38.55;;
43580;SDS011;29175;51.030;4.606;2023-06-22T13:43:02;91.45;;;38.95;;
43580;SDS011;29175;51.030;4.606;2023-06-22T13:45:29;94.18;;;39.63;;
43580;SDS011;29175;51.030;4.606;2023-06-22T13:47:55;89.25;;;38.30;;
43580;SDS011;29175;51.030;4.606;2023-06-22T13:50:20;85.00;;;38.30;;
43580;SDS011;29175;51.030;4.606;2023-06-22T13:52:46;89.38;;;38.35;;
43580;SDS011;29175;51.030;4.606;2023-06-22T13:55:12;86.75;;;38.97;;
43580;SDS011;29175;51.030;4.606;2023-06-22T13:57:39;97.30;;;40.38;;
43580;SDS011;29175;51.030;4.606;2023-06-22T14:00:05;92.28;;;41.40;;
43580;SDS011;29175;51.030;4.606;2023-06-22T14:02:33;89.03;;;35.83;;
43580;SDS011;29175;51.030;4.606;2023-06-22T14:04:59;88.55;;;38.55;;
43580;SDS011;29175;51.030;4.606;2023-06-22T14:07:25;93.28;;;40.35;;
43580;SDS011;29175;51.030;4.606;2023-06-22T14:09:51;92.07;;;39.72;;
43580;SDS011;29175;51.030;4.606;2023-06-22T14:12:17;97.13;;;42.55;;
43580;SDS011;29175;51.030;4.606;2023-06-22T14:14:45;107.53;;;43.40;;
43580;SDS011;29175;51.030;4.606;2023-06-22T14:17:11;112.43;;;45.25;;
43580;SDS011;29175;51.030;4.606;2023-06-22T14:19:36;104.05;;;43.22;;
43580;SDS011;29175;51.030;4.606;2023-06-22T14:22:02;103.93;;;44.42;;
43580;SDS011;29175;51.030;4.606;2023-06-22T14:24:28;117.70;;;47.28;;